Villas del Oeste, Puerto Rico
Current Conditions -  °F | °C
As of 6:50 PM on Sunday 21 Dec 2014 (Local Time) from TJBQ Reporting Station
Clear Clear  
Wind Chill: 75°   Ceiling: Unl
Heat Index: 75°   Visibility: 10mi
Dew Point: 64°   Wind: 12mph
Humidity: 69%   Direction: 110°ESE
Pressure: 30.04"   Gusts: 18mph
Location:  18.203°N, 67.14°W
Report Text: TJBQ 212250Z 11010G16KT 10SM SKC 24/18 A3004 RMK RWY 8 ATIS H
Loading
Personal Weather Stations






























Interactive Weather Map New forecast layout! Learn more

10-Day Weather Forecast

Advertisements
Track Severe Weather on mobile